Data for 05/29/2013

Time Sea-Level Adjusted Pressure Absolute Pressure Temperature Relative Humidity Dew Point   
(mb) (inHg) (mb) (inHg) (C) (F) (%) (C) (F)
00:05 1012 29.88 841 24.83 7.8 46.1 87 5.8 42.5
00:10 1012 29.88 841 24.83 7.8 46 87 5.7 42.2
00:15 1012 29.88 841 24.83 7.8 46 86 5.6 42.1
00:20 1012 29.88 841 24.83 7.8 46 86 5.6 42.1
00:25 1011 29.85 841 24.83 7.7 45.9 87 5.8 42.4
00:30 1011 29.85 841 24.83 7.7 45.9 88 5.9 42.6
00:35 1011 29.85 841 24.83 7.7 45.9 88 5.8 42.4
00:40 1011 29.85 841 24.83 7.7 45.9 87 5.7 42.2
00:45 1011 29.85 841 24.83 7.8 46 86 5.6 42
00:50 1011 29.85 840 24.81 7.9 46.1 85 5.4 41.7
00:55 1011 29.85 840 24.81 7.9 46.1 84 5.4 41.7
01:00 1011 29.85 840 24.81 7.9 46.2 85 5.5 41.9
01:05 1011 29.85 840 24.81 7.9 46.2 86 5.7 42.3
01:10 1011 29.85 840 24.81 7.8 46 87 5.7 42.3
01:15 1011 29.85 840 24.81 7.8 46 86 5.7 42.2
01:20 1011 29.85 840 24.81 7.8 46 86 5.6 42.2
01:25 1011 29.85 840 24.81 7.8 46 87 5.7 42.2
01:30 1011 29.85 840 24.81 7.8 46 85 5.5 41.9
01:35 1011 29.85 840 24.81 7.8 46 87 5.7 42.3
01:40 1011 29.85 840 24.81 7.7 45.9 87 5.6 42.2
01:45 1011 29.85 840 24.81 7.5 45.4 89 5.8 42.5
01:50 1011 29.85 840 24.81 7.3 45.2 89 5.7 42.3
01:55 1011 29.85 840 24.81 7.3 45.1 88 5.5 41.9
02:00 1011 29.85 840 24.81 7.3 45.2 89 5.6 42.1
02:05 1011 29.85 840 24.81 7.4 45.2 87 5.4 41.6
02:10 1011 29.85 840 24.81 7.4 45.4 88 5.5 41.9
02:15 1011 29.85 840 24.81 7.5 45.4 86 5.2 41.4
02:20 1011 29.85 840 24.81 7.5 45.4 87 5.4 41.7
02:25 1011 29.85 840 24.81 7.4 45.3 87 5.4 41.8
02:30 1011 29.85 840 24.81 7.4 45.2 87 5.3 41.5
02:35 1011 29.85 840 24.81 7.3 45.1 88 5.3 41.6
02:40 1011 29.85 840 24.81 7.2 45 86 5.1 41.1
02:45 1011 29.85 840 24.81 7.3 45.1 86 5.2 41.3
02:50 1011 29.85 840 24.81 7.4 45.2 87 5.3 41.5
02:55 1011 29.85 840 24.81 7.3 45.2 87 5.3 41.5
03:00 1011 29.85 840 24.81 7.3 45.1 87 5.2 41.4
03:05 1011 29.85 840 24.81 7.2 45 87 5.3 41.5
03:10 1011 29.85 840 24.81 7.2 44.9 88 5.4 41.6
03:15 1011 29.85 840 24.81 7.2 44.9 89 5.5 41.8
03:20 1011 29.85 840 24.81 7.1 44.7 90 5.5 41.9
03:25 1011 29.85 840 24.81 7 44.6 90 5.4 41.7
03:30 1011 29.85 840 24.81 6.9 44.5 89 5.3 41.6
03:35 1010 29.83 840 24.81 6.9 44.4 90 5.3 41.6
03:40 1010 29.83 840 24.81 6.9 44.5 89 5.3 41.5
03:45 1010 29.83 840 24.81 6.9 44.5 89 5.3 41.6
03:50 1010 29.83 840 24.81 6.9 44.4 88 5.1 41.2
03:55 1010 29.83 839 24.78 6.9 44.4 89 5.2 41.4
04:00 1010 29.83 839 24.78 7 44.6 89 5.3 41.5
04:05 1010 29.83 839 24.78 7 44.6 89 5.3 41.6
04:10 1010 29.83 839 24.78 7 44.5 90 5.4 41.7
04:15 1010 29.83 839 24.78 6.9 44.5 90 5.4 41.7
04:20 1010 29.83 839 24.78 6.9 44.5 91 5.5 41.9
04:25 1010 29.83 839 24.78 6.9 44.5 91 5.5 41.9
04:30 1010 29.83 839 24.78 7 44.5 90 5.4 41.7
04:35 1010 29.83 839 24.78 7.1 44.7 88 5.2 41.4
04:40 1010 29.83 839 24.78 7.1 44.8 88 5.2 41.4
04:45 1010 29.83 839 24.78 7.2 44.9 87 5.2 41.4
04:50 1010 29.83 839 24.78 7.2 45 88 5.3 41.6
04:55 1010 29.83 839 24.78 7.3 45.1 88 5.4 41.6
05:00 1010 29.83 839 24.78 7.3 45.1 87 5.3 41.6
05:05 1010 29.83 839 24.78 7.2 45 88 5.4 41.7
05:10 1010 29.83 839 24.78 7.2 45 88 5.3 41.6
05:15 1010 29.83 839 24.78 7.3 45.1 88 5.4 41.7
05:20 1010 29.83 839 24.78 7.3 45.1 88 5.3 41.6
05:25 1010 29.83 839 24.78 7.3 45.1 89 5.6 42
05:30 1010 29.83 839 24.78 7.2 44.9 89 5.5 41.9
05:35 1010 29.83 839 24.78 7.1 44.7 89 5.4 41.8
05:40 1010 29.83 839 24.78 7 44.6 90 5.5 41.9
05:45 1010 29.83 839 24.78 7 44.6 91 5.6 42.1
05:50 1010 29.83 839 24.78 7 44.7 90 5.5 41.9
05:55 1010 29.83 839 24.78 7.2 44.9 90 5.6 42.1
06:00 1010 29.83 839 24.78 7.2 45 89 5.6 42.1
06:05 1010 29.83 839 24.78 7.3 45.1 89 5.6 42.1
06:10 1010 29.83 839 24.78 7.3 45.1 88 5.4 41.8
06:15 1010 29.83 839 24.78 7.3 45.2 88 5.5 41.8
06:20 1010 29.83 839 24.78 7.3 45.2 88 5.4 41.7
06:25 1010 29.83 839 24.78 7.4 45.3 88 5.5 41.9
06:30 1010 29.83 839 24.78 7.5 45.4 87 5.4 41.7
06:35 1010 29.83 839 24.78 7.5 45.4 88 5.5 42
06:40 1010 29.83 839 24.78 7.4 45.4 88 5.5 41.9
06:45 1010 29.83 839 24.78 7.4 45.4 88 5.5 42
06:50 1010 29.83 839 24.78 7.5 45.5 89 5.8 42.5
06:55 1010 29.83 839 24.78 7.6 45.6 89 5.9 42.7
07:00 1010 29.83 839 24.78 7.6 45.7 90 6.1 43
07:05 1010 29.83 839 24.78 7.6 45.6 90 6.1 42.9
07:10 1010 29.83 839 24.78 7.7 45.8 90 6.2 43.1
07:15 1010 29.83 839 24.78 7.8 46 89 6.1 43
07:20 1010 29.83 839 24.78 7.9 46.2 88 6 42.8
07:25 1010 29.83 839 24.78 8 46.3 86 5.7 42.3
07:30 1010 29.83 839 24.78 7.9 46.3 86 5.7 42.2
07:35 1010 29.83 839 24.78 7.9 46.1 86 5.7 42.3
07:40 1010 29.83 839 24.78 7.9 46.3 86 5.8 42.4
07:45 1010 29.83 839 24.78 7.9 46.3 86 5.7 42.3
07:50 1010 29.83 839 24.78 7.9 46.3 86 5.7 42.2
07:55 1010 29.83 839 24.78 8.1 46.6 86 5.9 42.5
08:00 1010 29.83 839 24.78 8.3 47 86 6.1 43.1
08:05 1010 29.83 839 24.78 8.4 47.2 86 6.2 43.1
08:10 1010 29.83 839 24.78 8.6 47.4 85 6.1 43
08:15 1010 29.83 839 24.78 8.6 47.4 86 6.3 43.3
08:20 1010 29.83 839 24.78 8.6 47.4 87 6.5 43.7
08:25 1010 29.83 839 24.78 8.6 47.5 86 6.4 43.6
08:30 1010 29.83 839 24.78 8.6 47.5 87 6.6 43.9
08:35 1010 29.83 839 24.78 8.7 47.7 85 6.3 43.4
08:40 1010 29.83 839 24.78 8.6 47.4 85 6.3 43.3
08:45 1010 29.83 839 24.78 8.6 47.5 86 6.4 43.4
08:50 1010 29.83 839 24.78 8.6 47.5 87 6.5 43.7
08:55 1010 29.83 839 24.78 8.7 47.7 87 6.7 44.1
09:00 1010 29.83 839 24.78 8.9 47.9 86 6.6 43.9
09:05 1010 29.83 839 24.78 8.9 48 86 6.7 44
09:10 1010 29.83 839 24.78 9 48.2 86 6.8 44.2
09:15 1010 29.83 839 24.78 9.1 48.4 85 6.8 44.3
09:20 1010 29.83 839 24.78 9.3 48.7 84 6.7 44
09:25 1010 29.83 839 24.78 9.2 48.5 85 6.8 44.3
09:30 1010 29.83 839 24.78 9 48.1 86 6.8 44.2
09:35 1010 29.83 839 24.78 8.8 47.9 87 6.8 44.3
09:40 1010 29.83 839 24.78 8.9 48 86 6.7 44.1
09:45 1010 29.83 839 24.78 9 48.1 87 7 44.5
09:50 1010 29.83 839 24.78 9.1 48.3 84 6.6 43.9
09:55 1010 29.83 839 24.78 9.1 48.3 85 6.7 44.1
10:00 1010 29.83 839 24.78 9.2 48.5 85 6.8 44.3
10:05 1010 29.83 839 24.78 9.3 48.7 85 6.8 44.3
10:10 1010 29.83 839 24.78 9.4 49 83 6.6 43.9
10:15 1010 29.83 839 24.78 9.5 49.2 81 6.5 43.7
10:20 1010 29.83 839 24.78 9.6 49.2 81 6.4 43.5
10:25 1010 29.83 839 24.78 9.7 49.4 79 6.1 43.1
10:30 1010 29.83 839 24.78 9.7 49.5 77 5.8 42.5
10:35 1010 29.83 839 24.78 9.9 49.7 76 5.8 42.4
10:40 1010 29.83 839 24.78 9.9 49.9 73 5.4 41.8
10:45 1010 29.83 839 24.78 9.8 49.7 75 5.7 42.3
10:50 1010 29.83 839 24.78 9.9 49.9 79 6.5 43.7
10:55 1010 29.83 839 24.78 10 50 77 6.2 43.2
11:00 1010 29.83 839 24.78 9.8 49.6 74 5.3 41.6
11:05 1010 29.83 839 24.78 9.3 48.8 78 5.7 42.3
11:10 1010 29.83 839 24.78 9.7 49.4 79 6.2 43.1
11:15 1010 29.83 839 24.78 10 49.9 75 5.8 42.5
11:20 1010 29.83 839 24.78 10 50 70 4.9 40.8
11:25 1010 29.83 839 24.78 9.9 49.8 74 5.6 42.1
11:30 1010 29.83 839 24.78 10.1 50.1 69 4.7 40.5
11:35 1010 29.83 839 24.78 9.9 49.7 75 5.6 42.1
11:40 1010 29.83 839 24.78 10 49.9 73 5.3 41.5
11:45 1010 29.83 839 24.78 10.1 50.3 74 5.8 42.5
11:50 1010 29.83 839 24.78 10.6 51.1 73 6 42.9
11:55 1010 29.83 839 24.78 11 51.7 71 5.9 42.7
12:00 1010 29.83 839 24.78 10.8 51.4 68 5.1 41.2
12:05 1010 29.83 839 24.78 10.4 50.7 70 5.2 41.4
12:10 1010 29.83 839 24.78 10.2 50.3 67 4.4 40
12:15 1010 29.83 839 24.78 10.4 50.7 68 4.9 40.7
12:20 1010 29.83 839 24.78 10.2 50.3 75 6.1 42.9
12:25 1010 29.83 839 24.78 10.2 50.4 69 4.9 40.7
12:30 1010 29.83 839 24.78 10.5 50.9 66 4.5 40.2
12:35 1010 29.83 839 24.78 10.7 51.2 70 5.4 41.7
12:40 1010 29.83 839 24.78 10.9 51.6 65 4.6 40.2
12:45 1010 29.83 839 24.78 11.2 52.1 65 4.9 40.8
12:50 1010 29.83 839 24.78 11.6 53 62 4.7 40.5
12:55 1010 29.83 839 24.78 11.7 53.1 61 4.5 40.1
13:00 1010 29.83 839 24.78 11.9 53.5 63 5.2 41.3
13:05 1010 29.83 839 24.78 12.6 54.6 62 5.4 41.8
13:10 1009 29.8 839 24.78 12.2 54 62 5.3 41.5
13:15 1009 29.8 839 24.78 12.5 54.4 62 5.4 41.8
13:20 1009 29.8 839 24.78 11.9 53.4 63 5.2 41.3
13:25 1009 29.8 839 24.78 12.5 54.5 60 5 40.9
13:30 1009 29.8 839 24.78 13.1 55.6 56 4.7 40.4
13:35 1009 29.8 839 24.78 13.7 56.6 55 4.9 40.7
13:40 1009 29.8 838 24.75 13.3 55.9 55 4.6 40.2
13:45 1009 29.8 838 24.75 13.9 57.1 52 4.4 39.9
13:50 1009 29.8 838 24.75 13.7 56.6 52 4 39.1
13:55 1009 29.8 838 24.75 13.3 55.9 54 4.3 39.7
14:00 1009 29.8 838 24.75 13.8 56.9 53 4.4 39.9
14:05 1009 29.8 838 24.75 13.7 56.7 52 4.1 39.4
14:10 1009 29.8 838 24.75 13.4 56 53 4.1 39.3
14:15 1009 29.8 838 24.75 13.2 55.7 55 4.5 40.1
14:20 1009 29.8 838 24.75 13.3 56 54 4.4 39.8
14:25 1009 29.8 838 24.75 13.6 56.4 54 4.5 40.1
14:30 1009 29.8 838 24.75 13.6 56.5 54 4.5 40
14:35 1009 29.8 838 24.75 13.6 56.4 53 4.2 39.5
14:40 1009 29.8 838 24.75 13.6 56.5 54 4.5 40
14:45 1009 29.8 838 24.75 13.4 56.1 54 4.2 39.6
14:50 1009 29.8 838 24.75 13.5 56.2 54 4.5 40.1
14:55 1009 29.8 838 24.75 13.4 56.2 53 4.2 39.6
15:00 1009 29.8 838 24.75 13.5 56.3 54 4.5 40
15:05 1009 29.8 838 24.75 13.4 56.1 54 4.3 39.7
15:10 1009 29.8 838 24.75 13.6 56.5 53 4.2 39.6
15:15 1009 29.8 838 24.75 13.5 56.2 53 4.3 39.7
15:20 1009 29.8 838 24.75 13.5 56.2 53 4.2 39.5
15:25 1009 29.8 838 24.75 13.6 56.5 52 4.1 39.4
15:30 1009 29.8 838 24.75 13.7 56.6 53 4.3 39.7
15:35 1009 29.8 838 24.75 13.7 56.6 52 4.2 39.6
15:40 1009 29.8 838 24.75 13.7 56.6 54 4.5 40.1
15:45 1009 29.8 838 24.75 13.6 56.5 53 4.2 39.6
15:50 1009 29.8 838 24.75 13.9 57 52 4.3 39.7
15:55 1009 29.8 838 24.75 14 57.3 52 4.4 39.9
16:00 1009 29.8 838 24.75 13.9 57 53 4.6 40.2
16:05 1009 29.8 838 24.75 13.5 56.3 55 4.7 40.5
16:10 1009 29.8 838 24.75 13.2 55.8 54 4.2 39.6
16:15 1009 29.8 838 24.75 13.5 56.2 54 4.4 39.9
16:20 1009 29.8 838 24.75 13.1 55.5 55 4.4 39.9
16:25 1009 29.8 838 24.75 13.1 55.7 54 4.1 39.4
16:30 1009 29.8 838 24.75 13.7 56.7 54 4.7 40.4
16:35 1009 29.8 838 24.75 13.3 55.9 56 4.8 40.7
16:40 1009 29.8 838 24.75 13.2 55.7 55 4.5 40.1
16:45 1009 29.8 838 24.75 13.1 55.5 55 4.4 39.9
16:50 1009 29.8 838 24.75 13.1 55.6 55 4.4 39.9
16:55 1009 29.8 838 24.75 13.3 55.9 55 4.6 40.2
17:00 1009 29.8 838 24.75 13.4 56.2 53 4.1 39.4
17:05 1009 29.8 838 24.75 13.5 56.3 52 4 39.3
17:10 1009 29.8 838 24.75 13.8 56.9 52 4.4 39.8
17:15 1009 29.8 838 24.75 13.6 56.5 52 4.1 39.3
17:20 1009 29.8 838 24.75 13.4 56 51 3.5 38.2
17:25 1009 29.8 838 24.75 13.8 56.8 52 4.1 39.5
17:30 1009 29.8 838 24.75 14 57.2 53 4.6 40.2
17:35 1009 29.8 838 24.75 13.8 56.9 51 4 39.2
17:40 1009 29.8 838 24.75 13.6 56.6 53 4.2 39.6
17:45 1009 29.8 838 24.75 13.5 56.3 57 5.2 41.3
17:50 1009 29.8 838 24.75 13.1 55.6 60 5.5 41.9
17:55 1009 29.8 838 24.75 12.7 54.8 62 5.5 41.9
18:00 1009 29.8 838 24.75 12.6 54.6 61 5.3 41.5
18:05 1009 29.8 838 24.75 12.4 54.3 62 5.5 41.9
18:10 1009 29.8 838 24.75 12.2 54 62 5.3 41.6
18:15 1009 29.8 838 24.75 12.1 53.8 63 5.3 41.5
18:20 1009 29.8 838 24.75 12.1 53.8 63 5.3 41.5
18:25 1009 29.8 838 24.75 12 53.6 64 5.3 41.6
18:30 1009 29.8 838 24.75 11.9 53.5 64 5.4 41.7
18:35 1009 29.8 838 24.75 11.9 53.4 64 5.3 41.5
18:40 1009 29.8 838 24.75 11.9 53.4 63 5.1 41.2
18:45 1009 29.8 838 24.75 11.8 53.3 63 5.2 41.3
18:50 1009 29.8 838 24.75 11.8 53.2 64 5.2 41.4
18:55 1009 29.8 838 24.75 11.8 53.2 64 5.3 41.6
19:00 1009 29.8 838 24.75 11.8 53.2 64 5.3 41.6
19:05 1009 29.8 838 24.75 11.7 53.1 64 5.1 41.2
19:10 1009 29.8 838 24.75 11.7 53 63 4.9 40.8
19:15 1009 29.8 838 24.75 11.6 52.9 64 5.2 41.3
19:20 1009 29.8 838 24.75 11.5 52.7 66 5.4 41.8
19:25 1009 29.8 838 24.75 11.4 52.5 66 5.2 41.4
19:30 1009 29.8 838 24.75 11.3 52.3 67 5.5 41.9
19:35 1009 29.8 838 24.75 11.2 52.2 68 5.5 42
19:40 1009 29.8 838 24.75 11.1 52 65 4.9 40.9
19:45 1009 29.8 838 24.75 10.9 51.6 66 4.8 40.7
19:50 1009 29.8 838 24.75 10.7 51.2 67 4.8 40.6
19:55 1009 29.8 838 24.75 10.5 50.9 68 4.9 40.9
20:00 1009 29.8 838 24.75 10.3 50.6 70 5.1 41.2
20:05 1009 29.8 838 24.75 10.4 50.7 70 5.3 41.5
20:10 1009 29.8 838 24.75 10.5 50.8 69 5.1 41.2
20:15 1009 29.8 838 24.75 10.5 50.9 69 5.1 41.2
20:20 1009 29.8 838 24.75 10.5 50.9 69 5.2 41.3
20:25 1009 29.8 838 24.75 10.4 50.8 70 5.2 41.3
20:30 1009 29.8 839 24.78 10.4 50.6 70 5.2 41.4
20:35 1009 29.8 839 24.78 10.2 50.3 72 5.3 41.6
20:40 1009 29.8 839 24.78 9.9 49.9 72 5.2 41.4
20:45 1010 29.83 839 24.78 9.9 49.8 73 5.4 41.7
20:50 1010 29.83 839 24.78 9.7 49.4 76 5.6 42.1
20:55 1010 29.83 839 24.78 9.5 49.1 76 5.6 42.1
21:00 1010 29.83 839 24.78 9.5 49 76 5.5 42
21:05 1010 29.83 839 24.78 9.7 49.4 76 5.7 42.2
21:10 1010 29.83 839 24.78 9.6 49.2 78 6 42.8
21:15 1010 29.83 839 24.78 9.5 49 79 5.9 42.7
21:20 1010 29.83 839 24.78 9.5 49.1 78 5.9 42.7
21:25 1010 29.83 839 24.78 9.6 49.2 77 5.7 42.3
21:30 1010 29.83 839 24.78 9.7 49.4 77 5.8 42.5
21:35 1010 29.83 839 24.78 9.7 49.5 78 6.1 43
21:40 1010 29.83 839 24.78 9.6 49.3 78 6 42.9
21:45 1010 29.83 839 24.78 9.6 49.2 79 6.2 43.1
21:50 1010 29.83 839 24.78 9.6 49.2 80 6.3 43.3
21:55 1010 29.83 839 24.78 9.5 49.2 80 6.3 43.3
22:00 1010 29.83 839 24.78 9.5 49.1 80 6.2 43.2
22:05 1010 29.83 839 24.78 9.5 49.1 80 6.2 43.2
22:10 1010 29.83 839 24.78 9.5 49.1 80 6.2 43.2
22:15 1010 29.83 839 24.78 9.5 49.1 79 6.2 43.1
22:20 1010 29.83 839 24.78 9.5 49.1 80 6.2 43.2
22:25 1010 29.83 839 24.78 9.5 49 80 6.2 43.1
22:30 1010 29.83 839 24.78 9.4 48.9 81 6.3 43.3
22:35 1010 29.83 839 24.78 9.2 48.5 81 6.1 43
22:40 1010 29.83 839 24.78 8.9 48 79 5.5 41.8
22:45 1010 29.83 839 24.78 8.9 47.9 79 5.4 41.6
22:50 1010 29.83 839 24.78 8.9 48.1 77 5.2 41.4
22:55 1010 29.83 839 24.78 9 48.3 77 5.2 41.4
23:00 1010 29.83 839 24.78 9.2 48.6 78 5.7 42.2
23:05 1010 29.83 840 24.81 9.2 48.5 80 6 42.8
23:10 1010 29.83 840 24.81 9.1 48.5 77 5.4 41.7
23:15 1010 29.83 840 24.81 9.3 48.7 77 5.5 42
23:20 1011 29.85 840 24.81 9.3 48.7 78 5.7 42.3
23:25 1011 29.85 840 24.81 9.2 48.6 80 6 42.8
23:30 1011 29.85 840 24.81 9 48.2 81 5.9 42.6
23:35 1011 29.85 840 24.81 9.1 48.3 80 5.9 42.6
23:40 1011 29.85 840 24.81 9.1 48.3 80 5.8 42.4
23:45 1011 29.85 840 24.81 9 48.2 80 5.7 42.3
23:50 1011 29.85 840 24.81 8.9 48.1 80 5.7 42.2
23:55 1011 29.85 840 24.81 8.8 47.9 80 5.6 42.1
24:00 1011 29.85 840 24.81 8.8 47.9 80 5.6 42.1